Flight Track Log - Related Links

Times and Time Zones

All times are in EST time to prevent confusion due to time zone crossing. See the FSR411 flight status page for this flight to view local times or setup timezone preferences in your user account.

Time Position Orientation Groundspeed Altitude Reporting Facility
EST Latitude Longitude Course Direction KTS MPH feet Rate Location/Type
Tue 01:42:59 AM 44.4714 -88.1664 181° South 175 201 26,000  Level Minneapolis Center
Tue 01:43:59 AM 44.4225 -88.1967 204° Southwest 221 254 5,500 -8,650 Descending Minneapolis Center
Tue 01:44:59 AM 44.3533 -88.1939 178° South 238 274 8,700 3,025 Climbing Minneapolis Center
Tue 01:46:00 AM 44.2722 -88.1939 180° South 282 325 11,600 2,926 Climbing Minneapolis Center
Tue 01:47:00 AM 44.1744 -88.1944 180° South 342 394 14,600 3,350 Climbing Minneapolis Center
Tue 01:48:00 AM 43.5508 -88.1626 181° South  Level Estimated
Tue 01:48:00 AM 44.0664 -88.1967 181° South 382 440 18,300  Level Minneapolis Center
Tue 01:49:00 AM 43.9600 -88.1992 181° South 384 442 22,100 3,223 Climbing Minneapolis Center
Tue 01:50:01 AM 43.8494 -88.2022 181° South 393 452 24,800 1,934 Climbing Minneapolis Center
Tue 01:51:01 AM 43.7339 -88.2042 181° South 409 471 26,000 600 Climbing Minneapolis Center
Tue 01:52:01 AM 43.6092 -88.2067 181° South 436 502 26,000  Level Minneapolis Center
Tue 01:53:02 AM 43.4875 -88.2094 181° South 433 498 26,000  Level Minneapolis Center
Tue 01:54:02 AM 43.3675 -88.2128 181° South 426 490 26,000  Level Minneapolis Center
Tue 01:55:02 AM 43.2494 -88.2158 181° South 421 484 26,000  Level Minneapolis Center
Tue 01:56:03 AM 43.1317 -88.2181 181° South 420 483 26,000  Level Minneapolis Center
Tue 01:57:29 AM 42.9697 -88.2208 181° South 417 480 26,000  Level Chicago Center
Tue 01:58:30 AM 42.8533 -88.2228 181° South 416 479 26,000  Level Chicago Center
Tue 01:59:30 AM 42.7361 -88.2269 181° South 421 484 26,000  Level Chicago Center
Tue 02:00:30 AM 42.6208 -88.2294 181° South 417 480 26,000  Level Chicago Center
Tue 02:01:30 AM 42.5044 -88.2311 181° South 418 481 26,000  Level Chicago Center
Tue 02:02:31 AM 42.3653 -88.2339 181° South 417 480 26,000  Level Chicago Center
Tue 02:03:31 AM 42.2694 -88.2364 181° South 417 480 26,000  Level Chicago Center
Tue 02:04:31 AM 42.1550 -88.2381 181° South 415 478 26,000  Level Chicago Center
Tue 02:05:32 AM 42.0392 -88.2403 181° South 416 479 26,000  Level Chicago Center
Tue 02:06:32 AM 41.9003 -88.2436 181° South 417 480 26,000  Level Chicago Center
Tue 02:07:32 AM 41.7856 -88.2456 181° South 416 479 26,000  Level Chicago Center
Tue 02:08:33 AM 41.6703 -88.2472 181° South 417 480 26,000  Level Chicago Center
Tue 02:09:33 AM 41.5561 -88.2494 181° South 417 480 26,000  Level Chicago Center
Tue 02:10:33 AM 41.4428 -88.2525 181° South 417 480 26,000 -298 Level Chicago Center
Tue 02:11:34 AM 41.3303 -88.2542 181° South 415 478 25,400 -1,190 Descending Chicago Center
Tue 02:12:34 AM 41.2194 -88.2558 181° South 407 468 23,600 -2,100 Descending Chicago Center
Tue 02:13:34 AM 41.1108 -88.2581 181° South 397 457 21,200 -2,450 Descending Chicago Center
Tue 02:14:34 AM 41.0025 -88.2611 181° South 392 451 18,700 -2,231 Descending Chicago Center
Tue 02:15:35 AM 40.9000 -88.2800 188° South 379 436 16,700 -2,083 Descending Chicago Center
Tue 02:16:35 AM 40.8028 -88.2956 187° South 362 417 14,500 -2,200 Descending Chicago Center
Tue 02:17:35 AM 40.7061 -88.3122 187° South 354 407 12,300 -1,686 Descending Chicago Center
Tue 02:18:36 AM 40.6233 -88.3272 188° South 313 360 11,100 -1,438 Descending Chicago Center
Tue 02:19:36 AM 40.5475 -88.3397 187° South 285 328 9,400 -1,800 Descending Chicago Center
Tue 02:20:36 AM 40.4742 -88.3511 187° South 270 311 7,500 -1,900 Descending Chicago Center

Login

Don't have an account? Register now (free) for customized features, flight alerts, and more!